Flight Track Log - Related Links

Times and Time Zones

All times are in EDT time to prevent confusion due to time zone crossing. See the SWA3943 flight status page for this flight to view local times or setup timezone preferences in your user account.

Time Position Orientation Groundspeed Altitude Reporting Facility
EDT Latitude Longitude Course Direction KTS MPH feet Rate Location/Type
Tue 11:41:45 AM 26.7300 -80.1958 North 227 261 4,500  Level Miami Center
Tue 11:42:47 AM 26.7661 -80.1133 64° Northeast 280 322 7,400 3,145 Climbing Miami Center
Tue 11:43:00 AM 27.8467 -78.7309 North  Level FlightAware Approximate
Tue 11:43:49 AM 26.8006 -80.0267 66° East 296 341 11,000  Level Miami Center
Tue 11:44:00 AM 27.9520 -78.7118 North  Level FlightAware Approximate
Tue 11:44:50 AM 26.8478 -79.9339 60° Northeast 336 387 13,400  Level Miami Center
Tue 11:45:00 AM 28.0572 -78.6933 North  Level FlightAware Approximate
Tue 11:45:52 AM 26.9036 -79.8408 56° Northeast 371 427 15,400  Level Miami Center
Tue 11:46:00 AM 28.1718 -78.6741 North  Level FlightAware Approximate
Tue 11:46:54 AM 26.9633 -79.7378 57° Northeast 373 429 17,000  Level Miami Center
Tue 11:47:00 AM 28.2869 -78.6597 North  Level FlightAware Approximate
Tue 11:47:56 AM 27.0225 -79.6358 57° Northeast 377 434 17,000  Level Miami Center
Tue 11:48:58 AM 27.0850 -79.5314 56° Northeast 382 440 17,000 1,210 Level Miami Center
Tue 11:50:00 AM 27.1464 -79.4261 57° Northeast 384 442 19,500 2,439 Climbing Miami Center
Tue 11:51:01 AM 27.2111 -79.3164 56° Northeast 398 458 22,000 1,756 Climbing Miami Center
Tue 11:52:03 AM 27.2722 -79.2092 57° Northeast 417 480 23,100 1,694 Climbing Miami Center
Tue 11:53:05 AM 27.3414 -79.0908 57° Northeast 430 495 25,500 2,129 Climbing Miami Center
Tue 11:54:07 AM 27.4117 -78.9700 57° Northeast 440 506 27,500 1,790 Climbing Miami Center
Tue 11:55:09 AM 27.4836 -78.8436 57° Northeast 454 522 29,200 1,597 Climbing Miami Center
Tue 11:56:11 AM 27.5936 -78.7697 31° Northeast 468 539 30,800 1,742 Climbing Miami Center
Tue 11:57:13 AM 27.7325 -78.7492 North 480 552 32,800 1,854 Climbing Miami Center
Tue 11:58:14 AM 27.8536 -78.7308 North 464 534 34,600 1,756 Climbing Miami Center
Tue 11:59:16 AM 27.9742 -78.7131 North 458 527 36,400 1,500 Climbing Miami Center
Tue 12:00:18 PM 28.0983 -78.6961 North 455 524 37,700 1,258 Climbing Miami Center
Tue 12:01:20 PM 28.2208 -78.6769 North 447 514 39,000 629 Climbing Miami Center
Tue 12:02:22 PM 28.3675 -78.6561 North 447 514 39,000  Level Miami Center
Tue 12:03:24 PM 28.4878 -78.6369 North 441 507 39,000  Level Miami Center
Tue 12:04:26 PM 28.6092 -78.6194 North 441 507 39,000  Level Miami Center
Tue 12:05:27 PM 28.7333 -78.6017 North 445 512 39,000  Level Miami Center
Tue 12:06:29 PM 28.8567 -78.5836 North 445 512 39,000  Level Miami Center
Tue 12:07:31 PM 28.9806 -78.5647 North 445 512 39,000  Level Miami Center
Tue 12:08:33 PM 29.1242 -78.5436 North 441 507 39,000  Level Miami Center
Tue 12:09:35 PM 29.2461 -78.5242 North 442 509 39,000  Level Miami Center
Tue 12:10:37 PM 29.3683 -78.5061 North 443 510 39,000  Level Miami Center
Tue 12:11:39 PM 29.4917 -78.4869 North 444 511 39,000  Level Miami Center
Tue 12:12:40 PM 29.6161 -78.4686 North 448 516 39,000  Level Miami Center
Tue 12:13:27 PM 29.7153 -78.4522 North 453 521 39,000  Level Jacksonville Center
Tue 12:14:27 PM 29.8442 -78.4367 North 453 521 39,000  Level Jacksonville Center
Tue 12:15:28 PM 29.9708 -78.4167 North 459 528 39,000  Level Jacksonville Center
Tue 12:16:27 PM 30.0997 -78.4008 North 459 528 39,000  Level Jacksonville Center
Tue 12:17:27 PM 30.2283 -78.3781 North 465 535 39,000  Level Jacksonville Center
Tue 12:18:28 PM 30.3467 -78.3606 North 456 525 39,000  Level Jacksonville Center
Tue 12:19:27 PM 30.4814 -78.3372 North 462 532 39,000  Level Jacksonville Center
Tue 12:20:28 PM 30.6058 -78.3097 11° North 462 532 39,000  Level Jacksonville Center
Tue 12:21:28 PM 30.7383 -78.2839 10° North 462 532 39,000  Level Jacksonville Center
Tue 12:22:28 PM 30.8583 -78.2539 12° North 462 532 39,000  Level Jacksonville Center
Tue 12:23:27 PM 30.9806 -78.2283 10° North 461 531 39,000  Level Jacksonville Center
Tue 12:24:27 PM 31.1086 -78.1906 14° North 461 531 39,000  Level Jacksonville Center
Tue 12:25:28 PM 31.2331 -78.1697 North 461 531 39,000  Level Jacksonville Center
Tue 12:26:27 PM 31.3592 -78.1392 12° North 461 531 39,000  Level Jacksonville Center
Tue 12:27:28 PM 31.4856 -78.1108 11° North 461 531 39,000  Level Jacksonville Center
Tue 12:28:28 PM 31.6119 -78.0894 North 461 531 39,000  Level Jacksonville Center
Tue 12:29:28 PM 31.7383 -78.0633 10° North 461 531 39,000  Level Jacksonville Center
Tue 12:30:28 PM 31.8628 -78.0375 10° North 461 531 39,000  Level Jacksonville Center
Tue 12:31:28 PM 31.9889 -78.0111 10° North 466 536 39,000  Level Jacksonville Center
Tue 12:32:28 PM 32.1153 -77.9822 11° North 461 531 39,000  Level Jacksonville Center
Tue 12:33:28 PM 32.2433 -77.9533 11° North 461 531 39,000  Level Jacksonville Center
Tue 12:34:28 PM 32.3697 -77.9294 North 466 536 39,000  Level Jacksonville Center
Tue 12:35:27 PM 32.4981 -77.8978 12° North 466 536 39,000  Level Jacksonville Center
Tue 12:36:28 PM 32.6242 -77.8711 10° North 466 536 39,000  Level Jacksonville Center
Tue 12:37:27 PM 32.7547 -77.8439 10° North 466 536 39,000  Level Jacksonville Center
Tue 12:38:27 PM 32.8808 -77.8172 10° North 466 536 39,000  Level Jacksonville Center
Tue 12:39:28 PM 33.0092 -77.7900 10° North 466 536 39,000  Level Jacksonville Center
Tue 12:41:14 PM 33.2281 -77.7433 10° North 462 532 39,000  Level Washington Center
Tue 12:42:15 PM 33.3539 -77.7172 10° North 461 531 39,000  Level Washington Center
Tue 12:43:18 PM 33.4803 -77.6894 10° North 461 531 39,000  Level Washington Center
Tue 12:44:19 PM 33.6314 -77.6564 10° North 461 531 39,000  Level Washington Center
Tue 12:45:20 PM 33.7567 -77.6292 10° North 461 531 39,000  Level Washington Center
Tue 12:46:25 PM 33.8817 -77.6000 11° North 461 531 39,000  Level Washington Center
Tue 12:47:25 PM 34.0069 -77.5742 10° North 462 532 39,000  Level Washington Center
Tue 12:48:29 PM 34.1558 -77.5414 10° North 461 531 39,000  Level Washington Center
Tue 12:49:30 PM 34.2806 -77.5150 10° North 461 531 39,000  Level Washington Center
Tue 12:50:34 PM 34.4056 -77.4867 11° North 459 528 39,000  Level Washington Center
Tue 12:51:35 PM 34.5311 -77.4592 10° North 459 528 39,000  Level Washington Center
Tue 12:52:36 PM 34.6517 -77.4053 20° North 461 531 39,000  Level Washington Center
Tue 12:53:39 PM 34.7944 -77.3292 24° Northeast 466 536 39,000  Level Washington Center
Tue 12:54:41 PM 34.9108 -77.2667 24° Northeast 467 537 39,000  Level Washington Center
Tue 12:55:42 PM 35.0303 -77.2008 24° Northeast 470 541 39,000  Level Washington Center
Tue 12:56:46 PM 35.1489 -77.1353 24° Northeast 470 541 39,000  Level Washington Center
Tue 12:57:46 PM 35.2931 -77.0567 24° Northeast 471 542 39,000  Level Washington Center
Tue 12:58:50 PM 35.4128 -76.9903 24° Northeast 472 543 39,000  Level Washington Center
Tue 12:59:53 PM 35.5314 -76.9258 24° Northeast 472 543 39,000  Level Washington Center
Tue 01:00:54 PM 35.6597 -76.8519 25° Northeast 472 543 39,000  Level Washington Center
Tue 01:01:57 PM 35.7789 -76.7867 24° Northeast 470 541 39,000  Level Washington Center
Tue 01:02:58 PM 35.8986 -76.7214 24° Northeast 470 541 39,000  Level Washington Center
Tue 01:04:02 PM 36.0156 -76.6544 25° Northeast 468 539 39,000  Level Washington Center
Tue 01:05:03 PM 36.1317 -76.5867 25° Northeast 466 536 39,000  Level Washington Center
Tue 01:06:04 PM 36.2492 -76.5203 24° Northeast 463 533 39,000  Level Washington Center
Tue 01:07:08 PM 36.3914 -76.4406 24° Northeast 464 534 39,000  Level Washington Center
Tue 01:08:08 PM 36.5092 -76.3728 25° Northeast 465 535 39,000  Level Washington Center
Tue 01:09:12 PM 36.6283 -76.3042 25° Northeast 470 541 39,000  Level Washington Center
Tue 01:10:13 PM 36.7636 -76.2278 24° Northeast 470 541 39,000  Level Washington Center
Tue 01:11:17 PM 36.8825 -76.1589 25° Northeast 473 544 39,000  Level Washington Center
Tue 01:12:17 PM 36.9953 -76.0939 25° Northeast 472 543 39,000  Level Washington Center
Tue 01:13:21 PM 37.1106 -76.0089 30° Northeast 476 548 39,000  Level Washington Center
Tue 01:14:21 PM 37.2250 -75.9219 31° Northeast 476 548 39,000  Level Washington Center
Tue 01:15:25 PM 37.3636 -75.8253 29° Northeast 476 548 39,000  Level Washington Center
Tue 01:16:26 PM 37.4803 -75.7458 28° Northeast 476 548 39,000  Level Washington Center
Tue 01:17:30 PM 37.6017 -75.6853 22° Northeast 469 540 39,000  Level Washington Center
Tue 01:18:31 PM 37.7236 -75.6264 21° North 469 540 39,000  Level Washington Center
Tue 01:19:32 PM 37.8464 -75.5672 21° North 470 541 39,000  Level Washington Center
Tue 01:20:35 PM 37.9919 -75.4961 21° North 470 541 39,000  Level Washington Center
Tue 01:21:37 PM 38.1131 -75.4319 23° Northeast 470 541 39,000  Level Washington Center
Tue 01:22:41 PM 38.2303 -75.3581 26° Northeast 470 541 39,000  Level Washington Center
Tue 01:23:41 PM 38.3403 -75.2867 27° Northeast 470 541 39,000  Level Washington Center
Tue 01:24:43 PM 38.4814 -75.1981 26° Northeast 470 541 39,000 -432 Level Washington Center
Tue 01:25:46 PM 38.5969 -75.1225 27° Northeast 470 541 38,100 -952 Descending Washington Center
Tue 01:26:49 PM 38.7131 -75.0475 27° Northeast 468 539 37,000 -532 Descending Washington Center
Tue 01:27:50 PM 38.8300 -74.9733 26° Northeast 469 540 37,000 -96 Level Washington Center
Tue 01:28:54 PM 38.9478 -74.8981 26° Northeast 470 541 36,800 -532 Descending Washington Center
Tue 01:29:54 PM 39.0644 -74.8214 27° Northeast 470 541 35,900 -1,920 Descending Washington Center
Tue 01:30:59 PM 39.1753 -74.6778 45° Northeast 476 548 32,800 -3,072 Descending Washington Center
Tue 01:31:59 PM 39.2625 -74.5450 50° Northeast 483 556 29,500 -3,124 Descending Washington Center
Tue 01:33:00 PM 39.3483 -74.4111 50° Northeast 485 558 26,500 -2,758 Descending Washington Center
Tue 01:34:03 PM 39.4311 -74.2828 50° Northeast 475 547 23,800 -2,661 Descending Washington Center
Tue 01:35:04 PM 39.5258 -74.1347 50° Northeast 455 524 21,000 -1,333 Descending Washington Center
Tue 01:36:09 PM 39.6022 -74.0153 50° Northeast 440 506 21,000  Level Washington Center
Tue 01:37:09 PM 39.6772 -73.8961 51° Northeast 434 499 21,000  Level Washington Center
Tue 01:38:13 PM 39.7533 -73.7769 50° Northeast 431 496 21,000  Level Washington Center
Tue 01:39:15 PM 39.8283 -73.6567 51° Northeast 432 497 21,000 -683 Level Washington Center
Tue 01:40:16 PM 39.9306 -73.5256 45° Northeast 424 488 19,600 -1,951 Descending Boston Center
Tue 01:41:18 PM 40.0150 -73.4219 43° Northeast 415 478 17,000 -2,371 Descending Boston Center
Tue 01:42:20 PM 40.0961 -73.3261 42° Northeast 398 458 14,700 -2,274 Descending Boston Center
Tue 01:43:22 PM 40.1725 -73.2314 43° Northeast 384 442 12,300 -2,274 Descending Boston Center
Tue 01:44:24 PM 40.2467 -73.1422 43° Northeast 368 423 10,000 -1,610 Descending Boston Center
Tue 01:45:25 PM 40.3164 -73.0558 43° Northeast 349 402 9,000 -927 Descending Boston Center
Tue 01:46:27 PM 40.3997 -72.9950 29° Northeast 291 335 8,100 -1,016 Descending Boston Center
Tue 01:47:29 PM 40.4725 -72.9842 North 270 311 6,900 -1,548 Descending Boston Center
Tue 01:48:31 PM 40.5325 -73.0314 329° Northwest 253 291 4,900 -1,742 Descending Boston Center
Tue 01:49:33 PM 40.5914 -73.0758 330° Northwest 249 287 3,300 -1,415 Descending Boston Center
Tue 01:50:34 PM 40.6478 -73.1186 330° Northwest 241 277 2,000 -683 Descending Boston Center
Tue 01:51:36 PM 40.6994 -73.1561 331° Northwest 228 262 1,900 -339 Descending Boston Center
Tue 01:52:38 PM 40.7469 -73.1622 354° North 194 223 1,300 -677 Descending Boston Center
Tue 01:53:40 PM 40.7775 -73.1292 39° Northeast 162 186 500 -537 Descending Boston Center
Tue 01:54:41 PM 40.8131 -73.0864 42° Northeast 152 175 200 -295 Descending Boston Center
Tue 01:56:00 PM 40.7952 -73.1002 237° Southwest  Level Estimated

Login

Don't have an account? Register now (free) for customized features, flight alerts, and more!